sensor_id;sensor_type;location;lat;lon;timestamp;pressure;altitude;pressure_sealevel;temperature;humidity
30744;BME280;17486;46.738;7.622;2024-03-23T00:55:37;94915.78;;;12.19;51.23
30744;BME280;17486;46.738;7.622;2024-03-23T00:58:02;94899.69;;;12.12;50.15
30744;BME280;17486;46.738;7.622;2024-03-23T01:00:29;94850.78;;;11.72;50.18
30744;BME280;17486;46.738;7.622;2024-03-23T01:02:55;94903.44;;;11.92;49.89
30744;BME280;17486;46.738;7.622;2024-03-23T01:05:20;94889.03;;;11.86;50.35
30744;BME280;17486;46.738;7.622;2024-03-23T01:07:46;94892.56;;;11.85;50.28
30744;BME280;17486;46.738;7.622;2024-03-23T01:10:11;94884.94;;;11.82;50.08
30744;BME280;17486;46.738;7.622;2024-03-23T01:12:37;94900.28;;;11.87;50.31
30744;BME280;17486;46.738;7.622;2024-03-23T01:15:02;94892.56;;;11.85;49.73
30744;BME280;17486;46.738;7.622;2024-03-23T01:17:28;94877.69;;;11.87;49.29
30744;BME280;17486;46.738;7.622;2024-03-23T01:19:53;94887.25;;;11.87;49.34
30744;BME280;17486;46.738;7.622;2024-03-23T01:22:18;94870.88;;;11.85;49.47
30744;BME280;17486;46.738;7.622;2024-03-23T01:24:44;94863.78;;;11.72;49.00
30744;BME280;17486;46.738;7.622;2024-03-23T01:27:09;94875.06;;;11.73;48.79
30744;BME280;17486;46.738;7.622;2024-03-23T01:29:35;94862.50;;;11.65;49.28
30744;BME280;17486;46.738;7.622;2024-03-23T01:32:00;94852.53;;;11.57;49.31
30744;BME280;17486;46.738;7.622;2024-03-23T01:34:26;94857.28;;;11.51;49.37
30744;BME280;17486;46.738;7.622;2024-03-23T01:36:53;94813.66;;;11.25;50.54
30744;BME280;17486;46.738;7.622;2024-03-23T01:39:18;94825.91;;;11.23;51.99
30744;BME280;17486;46.738;7.622;2024-03-23T01:41:43;94835.69;;;11.34;52.51
30744;BME280;17486;46.738;7.622;2024-03-23T01:44:09;94819.66;;;11.11;53.45
30744;BME280;17486;46.738;7.622;2024-03-23T01:46:36;94824.53;;;11.32;53.65
30744;BME280;17486;46.738;7.622;2024-03-23T01:49:03;94812.44;;;11.31;54.38
30744;BME280;17486;46.738;7.622;2024-03-23T01:51:29;94816.72;;;11.32;54.22
30744;BME280;17486;46.738;7.622;2024-03-23T01:53:56;94827.31;;;11.43;54.39
30744;BME280;17486;46.738;7.622;2024-03-23T01:56:21;94835.78;;;11.47;53.91
30744;BME280;17486;46.738;7.622;2024-03-23T01:58:47;94813.00;;;11.51;52.97
30744;BME280;17486;46.738;7.622;2024-03-23T02:01:12;94818.94;;;11.38;53.21
30744;BME280;17486;46.738;7.622;2024-03-23T02:03:39;94813.56;;;11.27;52.89
30744;BME280;17486;46.738;7.622;2024-03-23T02:06:04;94814.69;;;11.37;53.99
30744;BME280;17486;46.738;7.622;2024-03-23T02:08:32;94812.81;;;11.39;54.42
30744;BME280;17486;46.738;7.622;2024-03-23T02:10:59;94830.88;;;11.42;54.41
30744;BME280;17486;46.738;7.622;2024-03-23T02:13:25;94813.22;;;11.48;54.02
30744;BME280;17486;46.738;7.622;2024-03-23T02:15:50;94802.59;;;11.51;54.17
30744;BME280;17486;46.738;7.622;2024-03-23T02:18:15;94793.56;;;11.56;54.18
30744;BME280;17486;46.738;7.622;2024-03-23T02:20:42;94799.34;;;11.61;53.96
30744;BME280;17486;46.738;7.622;2024-03-23T02:23:16;94788.09;;;11.61;53.71
30744;BME280;17486;46.738;7.622;2024-03-23T02:25:43;94788.91;;;11.61;52.79
30744;BME280;17486;46.738;7.622;2024-03-23T02:28:09;94784.56;;;11.62;52.31
30744;BME280;17486;46.738;7.622;2024-03-23T02:30:34;94796.06;;;11.58;52.65
30744;BME280;17486;46.738;7.622;2024-03-23T02:33:00;94807.16;;;11.61;52.73
30744;BME280;17486;46.738;7.622;2024-03-23T02:35:26;94784.16;;;11.68;52.59
30744;BME280;17486;46.738;7.622;2024-03-23T02:37:51;94774.13;;;11.62;53.29
30744;BME280;17486;46.738;7.622;2024-03-23T02:40:17;94729.88;;;11.48;53.68
30744;BME280;17486;46.738;7.622;2024-03-23T02:42:42;94784.47;;;11.64;53.83
30744;BME280;17486;46.738;7.622;2024-03-23T02:45:08;94784.16;;;11.68;54.03
30744;BME280;17486;46.738;7.622;2024-03-23T02:47:34;94755.41;;;11.55;53.23
30744;BME280;17486;46.738;7.622;2024-03-23T02:50:01;94742.16;;;11.45;52.00
30744;BME280;17486;46.738;7.622;2024-03-23T02:52:27;94743.28;;;11.41;51.71
30744;BME280;17486;46.738;7.622;2024-03-23T02:54:52;94769.97;;;11.45;52.26
30744;BME280;17486;46.738;7.622;2024-03-23T02:57:17;94784.00;;;11.42;52.13
30744;BME280;17486;46.738;7.622;2024-03-23T02:59:43;94779.72;;;11.41;51.41
30744;BME280;17486;46.738;7.622;2024-03-23T03:02:08;94776.66;;;11.35;51.05
30744;BME280;17486;46.738;7.622;2024-03-23T03:04:34;94764.25;;;11.24;51.08
30744;BME280;17486;46.738;7.622;2024-03-23T03:07:00;94772.38;;;11.19;51.14
30744;BME280;17486;46.738;7.622;2024-03-23T03:09:25;94773.94;;;11.22;51.13
30744;BME280;17486;46.738;7.622;2024-03-23T03:11:50;94755.06;;;11.18;50.36
30744;BME280;17486;46.738;7.622;2024-03-23T03:14:16;94751.72;;;11.16;51.20
30744;BME280;17486;46.738;7.622;2024-03-23T03:16:41;94759.44;;;11.18;51.38
30744;BME280;17486;46.738;7.622;2024-03-23T03:19:07;94757.56;;;11.20;51.92
30744;BME280;17486;46.738;7.622;2024-03-23T03:21:32;94787.69;;;11.24;51.79
30744;BME280;17486;46.738;7.622;2024-03-23T03:23:58;94764.09;;;11.27;51.38
30744;BME280;17486;46.738;7.622;2024-03-23T03:26:23;94760.56;;;11.28;51.17
30744;BME280;17486;46.738;7.622;2024-03-23T03:28:50;94757.97;;;11.28;51.48
30744;BME280;17486;46.738;7.622;2024-03-23T03:31:16;94756.00;;;11.32;51.52
30744;BME280;17486;46.738;7.622;2024-03-23T03:33:42;94755.94;;;11.33;51.28
30744;BME280;17486;46.738;7.622;2024-03-23T03:36:08;94739.25;;;11.21;51.19
30744;BME280;17486;46.738;7.622;2024-03-23T03:38:33;94724.59;;;11.35;50.70
30744;BME280;17486;46.738;7.622;2024-03-23T03:41:01;94714.44;;;11.30;50.46
30744;BME280;17486;46.738;7.622;2024-03-23T03:43:26;94700.31;;;11.05;50.43
30744;BME280;17486;46.738;7.622;2024-03-23T03:45:53;94755.63;;;11.23;50.89
30744;BME280;17486;46.738;7.622;2024-03-23T03:48:18;94699.38;;;11.06;50.65
30744;BME280;17486;46.738;7.622;2024-03-23T03:50:43;94701.72;;;11.11;50.95
30744;BME280;17486;46.738;7.622;2024-03-23T03:53:09;94723.38;;;11.11;51.26
30744;BME280;17486;46.738;7.622;2024-03-23T03:55:34;94711.13;;;11.14;51.03
30744;BME280;17486;46.738;7.622;2024-03-23T03:57:59;94710.34;;;11.11;50.40
30744;BME280;17486;46.738;7.622;2024-03-23T04:00:25;94666.88;;;10.85;50.52
30744;BME280;17486;46.738;7.622;2024-03-23T04:02:50;94688.78;;;10.95;50.32
30744;BME280;17486;46.738;7.622;2024-03-23T04:05:16;94693.41;;;10.90;50.13
30744;BME280;17486;46.738;7.622;2024-03-23T04:07:42;94659.22;;;10.82;50.46
30744;BME280;17486;46.738;7.622;2024-03-23T04:10:07;94637.31;;;10.71;50.90
30744;BME280;17486;46.738;7.622;2024-03-23T04:12:34;94662.94;;;10.92;50.82
30744;BME280;17486;46.738;7.622;2024-03-23T04:14:59;94659.59;;;11.04;50.28
30744;BME280;17486;46.738;7.622;2024-03-23T04:17:26;94664.44;;;11.10;50.20
30744;BME280;17486;46.738;7.622;2024-03-23T04:19:56;94637.69;;;11.08;50.34
30744;BME280;17486;46.738;7.622;2024-03-23T04:22:22;94612.75;;;11.04;50.44
30744;BME280;17486;46.738;7.622;2024-03-23T04:24:49;94649.84;;;11.08;50.83
30744;BME280;17486;46.738;7.622;2024-03-23T04:27:14;94650.28;;;11.15;50.73
30744;BME280;17486;46.738;7.622;2024-03-23T04:29:40;94633.66;;;11.17;50.81
30744;BME280;17486;46.738;7.622;2024-03-23T04:32:05;94613.25;;;10.97;50.45
30744;BME280;17486;46.738;7.622;2024-03-23T04:34:31;94622.25;;;10.91;50.29
30744;BME280;17486;46.738;7.622;2024-03-23T04:36:58;94620.41;;;10.93;50.86
30744;BME280;17486;46.738;7.622;2024-03-23T04:39:24;94631.16;;;11.01;51.02
30744;BME280;17486;46.738;7.622;2024-03-23T04:41:49;94613.31;;;11.09;51.89
30744;BME280;17486;46.738;7.622;2024-03-23T04:44:15;94575.81;;;10.85;54.15
30744;BME280;17486;46.738;7.622;2024-03-23T04:46:40;94595.97;;;10.95;54.53
30744;BME280;17486;46.738;7.622;2024-03-23T04:49:06;94622.44;;;11.02;54.26
30744;BME280;17486;46.738;7.622;2024-03-23T04:51:35;94608.41;;;11.05;54.10
30744;BME280;17486;46.738;7.622;2024-03-23T04:54:03;94598.44;;;11.11;53.40
30744;BME280;17486;46.738;7.622;2024-03-23T04:56:30;94569.81;;;11.11;53.82
30744;BME280;17486;46.738;7.622;2024-03-23T04:58:56;94600.00;;;11.28;53.49
30744;BME280;17486;46.738;7.622;2024-03-23T05:01:26;94571.81;;;11.35;52.49
30744;BME280;17486;46.738;7.622;2024-03-23T05:03:53;94571.41;;;11.69;51.04
30744;BME280;17486;46.738;7.622;2024-03-23T05:06:18;94563.81;;;11.78;51.93
30744;BME280;17486;46.738;7.622;2024-03-23T05:08:44;94555.72;;;11.83;51.52
30744;BME280;17486;46.738;7.622;2024-03-23T05:11:11;94553.22;;;11.82;51.40
30744;BME280;17486;46.738;7.622;2024-03-23T05:13:36;94586.66;;;11.88;51.75
30744;BME280;17486;46.738;7.622;2024-03-23T05:16:02;94572.50;;;11.79;52.16
30744;BME280;17486;46.738;7.622;2024-03-23T05:18:27;94594.53;;;11.73;52.67
30744;BME280;17486;46.738;7.622;2024-03-23T05:20:57;94604.44;;;11.68;52.36
30744;BME280;17486;46.738;7.622;2024-03-23T05:23:24;94621.63;;;11.71;53.04
30744;BME280;17486;46.738;7.622;2024-03-23T05:25:49;94601.50;;;11.60;52.68
30744;BME280;17486;46.738;7.622;2024-03-23T05:28:15;94622.03;;;11.65;53.00
30744;BME280;17486;46.738;7.622;2024-03-23T05:30:40;94627.16;;;11.66;53.41
30744;BME280;17486;46.738;7.622;2024-03-23T05:33:06;94614.38;;;11.34;55.92
30744;BME280;17486;46.738;7.622;2024-03-23T05:35:31;94613.28;;;11.24;55.88
30744;BME280;17486;46.738;7.622;2024-03-23T05:37:58;94619.38;;;11.10;57.16
30744;BME280;17486;46.738;7.622;2024-03-23T05:40:26;94629.22;;;11.05;55.76
30744;BME280;17486;46.738;7.622;2024-03-23T05:42:52;94645.66;;;11.05;56.83
30744;BME280;17486;46.738;7.622;2024-03-23T05:45:23;94656.34;;;11.15;57.05
30744;BME280;17486;46.738;7.622;2024-03-23T05:47:48;94609.25;;;10.91;56.27
30744;BME280;17486;46.738;7.622;2024-03-23T05:50:14;94623.47;;;11.00;56.70
30744;BME280;17486;46.738;7.622;2024-03-23T05:52:40;94615.66;;;11.00;57.45
30744;BME280;17486;46.738;7.622;2024-03-23T05:55:06;94693.59;;;11.44;58.46
30744;BME280;17486;46.738;7.622;2024-03-23T05:57:31;94694.31;;;11.61;58.66
30744;BME280;17486;46.738;7.622;2024-03-23T05:59:57;94687.97;;;11.65;59.36
30744;BME280;17486;46.738;7.622;2024-03-23T06:02:23;94711.09;;;11.84;59.66
30744;BME280;17486;46.738;7.622;2024-03-23T06:04:50;94706.34;;;11.91;60.36
30744;BME280;17486;46.738;7.622;2024-03-23T06:07:15;94707.94;;;11.93;60.45
30744;BME280;17486;46.738;7.622;2024-03-23T06:09:41;94723.06;;;12.01;61.12
30744;BME280;17486;46.738;7.622;2024-03-23T06:12:07;94719.53;;;12.02;61.25
30744;BME280;17486;46.738;7.622;2024-03-23T06:14:34;94717.47;;;12.07;61.89
30744;BME280;17486;46.738;7.622;2024-03-23T06:16:59;94691.75;;;11.88;61.92
30744;BME280;17486;46.738;7.622;2024-03-23T06:19:25;94754.63;;;12.11;63.30
30744;BME280;17486;46.738;7.622;2024-03-23T06:21:53;94767.38;;;12.16;63.65
30744;BME280;17486;46.738;7.622;2024-03-23T06:24:18;94766.13;;;12.21;63.93
30744;BME280;17486;46.738;7.622;2024-03-23T06:26:44;94777.00;;;12.28;63.77
30744;BME280;17486;46.738;7.622;2024-03-23T06:29:09;94772.72;;;12.27;63.44
30744;BME280;17486;46.738;7.622;2024-03-23T06:31:34;94769.72;;;12.33;63.05
30744;BME280;17486;46.738;7.622;2024-03-23T06:34:00;94786.63;;;12.40;62.59
30744;BME280;17486;46.738;7.622;2024-03-23T06:36:27;94774.88;;;12.20;63.03
30744;BME280;17486;46.738;7.622;2024-03-23T06:38:52;94782.22;;;12.28;61.80
30744;BME280;17486;46.738;7.622;2024-03-23T06:41:19;94791.56;;;12.18;62.16
30744;BME280;17486;46.738;7.622;2024-03-23T06:43:44;94779.66;;;12.14;61.72
30744;BME280;17486;46.738;7.622;2024-03-23T06:46:10;94803.88;;;12.16;62.04
30744;BME280;17486;46.738;7.622;2024-03-23T06:48:36;94801.63;;;12.24;60.39
30744;BME280;17486;46.738;7.622;2024-03-23T06:51:01;94798.19;;;12.09;58.73
30744;BME280;17486;46.738;7.622;2024-03-23T06:53:26;94806.38;;;12.17;59.00
30744;BME280;17486;46.738;7.622;2024-03-23T06:55:53;94818.19;;;12.23;58.00
30744;BME280;17486;46.738;7.622;2024-03-23T06:58:23;94804.31;;;12.22;57.82
30744;BME280;17486;46.738;7.622;2024-03-23T07:00:49;94761.56;;;11.98;57.52
30744;BME280;17486;46.738;7.622;2024-03-23T07:03:16;94805.59;;;12.30;56.87
30744;BME280;17486;46.738;7.622;2024-03-23T07:05:41;94828.03;;;12.32;57.01
30744;BME280;17486;46.738;7.622;2024-03-23T07:08:07;94831.72;;;12.42;57.05
30744;BME280;17486;46.738;7.622;2024-03-23T07:10:33;94818.34;;;12.34;56.97
30744;BME280;17486;46.738;7.622;2024-03-23T07:12:58;94836.75;;;12.46;57.29
30744;BME280;17486;46.738;7.622;2024-03-23T07:15:25;94856.78;;;12.45;57.65
30744;BME280;17486;46.738;7.622;2024-03-23T07:17:50;94841.13;;;12.45;57.87
30744;BME280;17486;46.738;7.622;2024-03-23T07:20:15;94861.44;;;12.40;57.41
30744;BME280;17486;46.738;7.622;2024-03-23T07:22:41;94856.44;;;12.37;57.13
30744;BME280;17486;46.738;7.622;2024-03-23T07:25:07;94853.34;;;12.44;57.02
30744;BME280;17486;46.738;7.622;2024-03-23T07:27:32;94863.22;;;12.39;56.42
30744;BME280;17486;46.738;7.622;2024-03-23T07:29:59;94867.69;;;12.37;56.33
30744;BME280;17486;46.738;7.622;2024-03-23T07:32:25;94856.88;;;12.43;55.45
30744;BME280;17486;46.738;7.622;2024-03-23T07:34:52;94865.19;;;12.36;55.16
30744;BME280;17486;46.738;7.622;2024-03-23T07:37:17;94871.13;;;12.38;55.08
30744;BME280;17486;46.738;7.622;2024-03-23T07:39:42;94876.38;;;12.23;55.24
30744;BME280;17486;46.738;7.622;2024-03-23T07:42:08;94873.28;;;12.31;54.83
30744;BME280;17486;46.738;7.622;2024-03-23T07:44:33;94881.47;;;12.39;55.02
30744;BME280;17486;46.738;7.622;2024-03-23T07:47:00;94885.59;;;12.29;55.33
30744;BME280;17486;46.738;7.622;2024-03-23T07:49:26;94827.16;;;12.04;55.58
30744;BME280;17486;46.738;7.622;2024-03-23T07:51:51;94880.28;;;12.31;55.50
30744;BME280;17486;46.738;7.622;2024-03-23T07:54:17;94891.72;;;12.42;54.75
30744;BME280;17486;46.738;7.622;2024-03-23T07:56:42;94899.59;;;12.55;53.99
30744;BME280;17486;46.738;7.622;2024-03-23T07:59:07;94900.53;;;12.54;53.91
30744;BME280;17486;46.738;7.622;2024-03-23T08:01:33;94912.34;;;12.60;53.42
30744;BME280;17486;46.738;7.622;2024-03-23T08:03:58;94914.88;;;12.62;53.20
30744;BME280;17486;46.738;7.622;2024-03-23T08:06:23;94917.97;;;12.54;53.67
30744;BME280;17486;46.738;7.622;2024-03-23T08:08:53;94923.63;;;12.60;53.50
30744;BME280;17486;46.738;7.622;2024-03-23T08:11:28;94924.09;;;12.67;52.98
30744;BME280;17486;46.738;7.622;2024-03-23T08:13:56;94930.69;;;12.73;52.80
30744;BME280;17486;46.738;7.622;2024-03-23T08:16:22;94932.81;;;12.81;52.16
30744;BME280;17486;46.738;7.622;2024-03-23T08:18:47;94949.91;;;12.99;51.95
30744;BME280;17486;46.738;7.622;2024-03-23T08:21:13;94949.94;;;13.12;52.09
30744;BME280;17486;46.738;7.622;2024-03-23T08:23:39;94956.84;;;13.13;52.51
30744;BME280;17486;46.738;7.622;2024-03-23T08:26:07;94927.53;;;12.95;52.51
30744;BME280;17486;46.738;7.622;2024-03-23T08:28:32;94961.31;;;13.11;53.89
30744;BME280;17486;46.738;7.622;2024-03-23T08:31:01;94965.78;;;13.23;53.75
30744;BME280;17486;46.738;7.622;2024-03-23T08:33:28;94973.56;;;13.10;53.50
30744;BME280;17486;46.738;7.622;2024-03-23T08:36:01;94978.78;;;13.10;52.61
30744;BME280;17486;46.738;7.622;2024-03-23T08:38:27;94981.50;;;13.09;51.45
30744;BME280;17486;46.738;7.622;2024-03-23T08:41:04;94978.16;;;12.92;52.38
30744;BME280;17486;46.738;7.622;2024-03-23T08:43:31;95002.13;;;12.85;52.49
30744;BME280;17486;46.738;7.622;2024-03-23T08:46:10;94995.19;;;12.71;52.05
30744;BME280;17486;46.738;7.622;2024-03-23T08:48:43;95006.94;;;12.49;52.30
30744;BME280;17486;46.738;7.622;2024-03-23T08:51:10;94956.38;;;12.08;52.45
30744;BME280;17486;46.738;7.622;2024-03-23T08:53:36;94999.31;;;12.17;54.20
30744;BME280;17486;46.738;7.622;2024-03-23T08:56:02;94985.41;;;12.17;59.91
30744;BME280;17486;46.738;7.622;2024-03-23T08:58:29;95018.47;;;12.16;54.96
30744;BME280;17486;46.738;7.622;2024-03-23T09:00:56;95018.84;;;11.80;55.65
30744;BME280;17486;46.738;7.622;2024-03-23T09:03:25;95011.03;;;11.49;56.46
30744;BME280;17486;46.738;7.622;2024-03-23T09:05:51;95017.41;;;11.43;56.60
30744;BME280;17486;46.738;7.622;2024-03-23T09:08:17;95027.91;;;11.42;57.15
30744;BME280;17486;46.738;7.622;2024-03-23T09:10:42;95009.97;;;11.37;56.91
30744;BME280;17486;46.738;7.622;2024-03-23T09:13:08;95000.31;;;11.23;57.31
30744;BME280;17486;46.738;7.622;2024-03-23T09:15:35;95021.31;;;11.36;57.34
30744;BME280;17486;46.738;7.622;2024-03-23T09:18:01;95011.00;;;11.19;58.20
30744;BME280;17486;46.738;7.622;2024-03-23T09:20:27;95030.47;;;11.27;58.54
30744;BME280;17486;46.738;7.622;2024-03-23T09:22:52;95039.38;;;11.23;58.31
30744;BME280;17486;46.738;7.622;2024-03-23T09:25:17;95020.56;;;11.18;57.33
30744;BME280;17486;46.738;7.622;2024-03-23T09:27:47;95047.19;;;11.23;57.21
30744;BME280;17486;46.738;7.622;2024-03-23T09:30:13;94982.47;;;10.69;58.13
30744;BME280;17486;46.738;7.622;2024-03-23T09:32:39;95050.13;;;11.01;58.25
30744;BME280;17486;46.738;7.622;2024-03-23T09:35:04;95048.59;;;10.97;58.24
30744;BME280;17486;46.738;7.622;2024-03-23T09:37:30;95066.22;;;10.92;58.07
30744;BME280;17486;46.738;7.622;2024-03-23T09:39:55;95078.47;;;10.90;57.84
30744;BME280;17486;46.738;7.622;2024-03-23T09:42:20;95083.56;;;10.75;57.97
30744;BME280;17486;46.738;7.622;2024-03-23T09:44:47;95075.63;;;10.45;58.43
30744;BME280;17486;46.738;7.622;2024-03-23T09:47:16;95096.72;;;10.56;57.86
30744;BME280;17486;46.738;7.622;2024-03-23T09:49:42;95102.13;;;10.52;57.68
30744;BME280;17486;46.738;7.622;2024-03-23T09:52:07;95106.50;;;10.51;58.05
30744;BME280;17486;46.738;7.622;2024-03-23T09:54:33;95114.72;;;10.43;58.42
30744;BME280;17486;46.738;7.622;2024-03-23T09:56:58;95089.19;;;10.17;58.31
30744;BME280;17486;46.738;7.622;2024-03-23T09:59:24;95109.72;;;10.21;58.91
30744;BME280;17486;46.738;7.622;2024-03-23T10:01:52;95109.81;;;10.20;58.88
30744;BME280;17486;46.738;7.622;2024-03-23T10:04:40;95121.72;;;10.24;59.14
30744;BME280;17486;46.738;7.622;2024-03-23T10:07:20;95125.72;;;10.31;59.40
30744;BME280;17486;46.738;7.622;2024-03-23T10:09:47;95117.31;;;10.43;59.54
30744;BME280;17486;46.738;7.622;2024-03-23T10:12:14;95123.19;;;10.47;58.92
30744;BME280;17486;46.738;7.622;2024-03-23T10:14:41;95126.00;;;10.60;57.89
30744;BME280;17486;46.738;7.622;2024-03-23T10:17:20;95125.88;;;10.45;57.31
30744;BME280;17486;46.738;7.622;2024-03-23T10:19:50;95127.41;;;10.50;58.86
30744;BME280;17486;46.738;7.622;2024-03-23T10:22:23;95127.16;;;10.54;58.97
30744;BME280;17486;46.738;7.622;2024-03-23T10:24:51;95118.69;;;10.51;58.36
30744;BME280;17486;46.738;7.622;2024-03-23T10:27:20;95125.06;;;10.61;58.43
30744;BME280;17486;46.738;7.622;2024-03-23T10:29:49;95122.75;;;10.72;57.86
30744;BME280;17486;46.738;7.622;2024-03-23T10:32:16;95119.75;;;10.80;57.30
30744;BME280;17486;46.738;7.622;2024-03-23T10:34:42;95111.16;;;10.62;57.97
30744;BME280;17486;46.738;7.622;2024-03-23T10:37:08;95143.06;;;10.99;57.26
30744;BME280;17486;46.738;7.622;2024-03-23T10:39:38;95132.78;;;10.96;57.85
30744;BME280;17486;46.738;7.622;2024-03-23T10:42:08;95103.31;;;10.80;56.99
30744;BME280;17486;46.738;7.622;2024-03-23T10:44:34;95114.03;;;10.73;56.65
30744;BME280;17486;46.738;7.622;2024-03-23T10:47:04;95136.66;;;10.89;56.71
30744;BME280;17486;46.738;7.622;2024-03-23T10:49:34;95144.97;;;10.95;56.34
30744;BME280;17486;46.738;7.622;2024-03-23T10:52:00;95151.13;;;11.26;56.28
30744;BME280;17486;46.738;7.622;2024-03-23T10:54:27;95145.34;;;11.53;55.51
30744;BME280;17486;46.738;7.622;2024-03-23T10:56:58;95143.50;;;11.71;55.76
30744;BME280;17486;46.738;7.622;2024-03-23T10:59:25;95145.31;;;12.17;51.72
30744;BME280;17486;46.738;7.622;2024-03-23T11:01:58;95159.53;;;12.42;51.58
30744;BME280;17486;46.738;7.622;2024-03-23T11:04:37;95151.59;;;12.43;51.11
30744;BME280;17486;46.738;7.622;2024-03-23T11:09:52;95121.38;;;12.70;49.92
30744;BME280;17486;46.738;7.622;2024-03-23T14:49:52;94923.53;;;19.04;22.02
30744;BME280;17486;46.738;7.622;2024-03-23T14:52:18;94926.53;;;18.49;22.25
30744;BME280;17486;46.738;7.622;2024-03-23T14:54:44;94934.59;;;18.58;22.35
30744;BME280;17486;46.738;7.622;2024-03-23T14:57:10;94952.28;;;18.46;22.73
30744;BME280;17486;46.738;7.622;2024-03-23T14:59:36;94926.06;;;18.34;22.85
30744;BME280;17486;46.738;7.622;2024-03-23T15:02:06;94945.19;;;18.36;23.65
30744;BME280;17486;46.738;7.622;2024-03-23T15:04:31;94940.69;;;18.17;24.43
30744;BME280;17486;46.738;7.622;2024-03-23T15:06:57;94955.50;;;17.97;25.00
30744;BME280;17486;46.738;7.622;2024-03-23T15:09:22;94953.69;;;17.77;25.18
30744;BME280;17486;46.738;7.622;2024-03-23T15:11:48;94952.03;;;17.43;25.54
30744;BME280;17486;46.738;7.622;2024-03-23T15:14:13;94931.56;;;17.14;26.01
30744;BME280;17486;46.738;7.622;2024-03-23T15:16:38;94940.06;;;17.06;26.53
30744;BME280;17486;46.738;7.622;2024-03-23T15:19:04;94934.00;;;16.95;26.77
30744;BME280;17486;46.738;7.622;2024-03-23T15:21:31;94941.44;;;16.78;26.72
30744;BME280;17486;46.738;7.622;2024-03-23T15:23:57;94938.22;;;16.63;26.87
30744;BME280;17486;46.738;7.622;2024-03-23T15:26:22;94940.22;;;16.25;27.21
30744;BME280;17486;46.738;7.622;2024-03-23T15:28:48;94942.88;;;16.14;27.21
30744;BME280;17486;46.738;7.622;2024-03-23T15:31:24;94938.44;;;15.68;27.82
30744;BME280;17486;46.738;7.622;2024-03-23T15:33:49;94954.72;;;15.49;27.55
30744;BME280;17486;46.738;7.622;2024-03-23T15:36:14;94941.97;;;15.20;28.00
30744;BME280;17486;46.738;7.622;2024-03-23T15:38:40;94947.88;;;15.11;28.05
30744;BME280;17486;46.738;7.622;2024-03-23T15:41:05;94942.81;;;14.96;28.51
30744;BME280;17486;46.738;7.622;2024-03-23T15:43:31;94938.16;;;15.00;28.48
30744;BME280;17486;46.738;7.622;2024-03-23T15:46:01;94945.78;;;14.79;28.76
30744;BME280;17486;46.738;7.622;2024-03-23T15:48:28;94943.50;;;14.74;28.73
30744;BME280;17486;46.738;7.622;2024-03-23T15:50:58;94938.59;;;14.69;28.90
30744;BME280;17486;46.738;7.622;2024-03-23T15:53:24;94915.81;;;14.33;28.96
30744;BME280;17486;46.738;7.622;2024-03-23T15:55:57;94937.47;;;14.48;29.17
30744;BME280;17486;46.738;7.622;2024-03-23T15:58:23;94943.50;;;14.61;28.94
30744;BME280;17486;46.738;7.622;2024-03-23T16:00:59;94936.97;;;14.80;29.11
30744;BME280;17486;46.738;7.622;2024-03-23T16:03:26;94942.88;;;14.95;29.08
30744;BME280;17486;46.738;7.622;2024-03-23T16:05:56;94946.00;;;15.00;28.93
30744;BME280;17486;46.738;7.622;2024-03-23T16:08:22;94938.13;;;15.13;28.75
30744;BME280;17486;46.738;7.622;2024-03-23T16:10:48;94941.47;;;15.15;28.53
30744;BME280;17486;46.738;7.622;2024-03-23T16:13:14;94935.84;;;15.08;28.83
30744;BME280;17486;46.738;7.622;2024-03-23T16:15:40;94940.19;;;14.96;28.38
30744;BME280;17486;46.738;7.622;2024-03-23T16:18:05;94938.16;;;14.75;28.45
30744;BME280;17486;46.738;7.622;2024-03-23T16:20:31;94941.94;;;14.71;28.31
30744;BME280;17486;46.738;7.622;2024-03-23T16:23:01;94942.38;;;14.65;28.58
30744;BME280;17486;46.738;7.622;2024-03-23T16:25:27;94932.00;;;14.64;28.40
30744;BME280;17486;46.738;7.622;2024-03-23T16:27:53;94947.31;;;14.44;28.53
30744;BME280;17486;46.738;7.622;2024-03-23T16:30:19;94915.75;;;14.21;28.65
30744;BME280;17486;46.738;7.622;2024-03-23T16:32:48;94928.25;;;14.29;28.49
30744;BME280;17486;46.738;7.622;2024-03-23T16:35:14;94954.41;;;14.29;29.11
30744;BME280;17486;46.738;7.622;2024-03-23T16:37:40;94953.06;;;14.36;29.01
30744;BME280;17486;46.738;7.622;2024-03-23T16:40:06;94948.38;;;14.16;28.87
30744;BME280;17486;46.738;7.622;2024-03-23T16:42:37;94948.69;;;13.98;29.01
30744;BME280;17486;46.738;7.622;2024-03-23T16:45:03;94918.44;;;13.68;28.92
30744;BME280;17486;46.738;7.622;2024-03-23T16:47:29;94930.19;;;13.75;29.03
30744;BME280;17486;46.738;7.622;2024-03-23T16:49:54;94948.78;;;13.84;29.07
30744;BME280;17486;46.738;7.622;2024-03-23T16:52:20;94946.38;;;13.93;29.08
30744;BME280;17486;46.738;7.622;2024-03-23T16:54:45;94948.16;;;13.93;29.05
30744;BME280;17486;46.738;7.622;2024-03-23T16:57:11;94945.31;;;13.83;29.12
30744;BME280;17486;46.738;7.622;2024-03-23T16:59:36;94931.59;;;13.54;29.10
30744;BME280;17486;46.738;7.622;2024-03-23T17:02:01;94949.88;;;13.54;29.01
30744;BME280;17486;46.738;7.622;2024-03-23T17:04:27;94946.25;;;13.29;29.03
30744;BME280;17486;46.738;7.622;2024-03-23T17:06:53;94955.44;;;13.22;29.19
30744;BME280;17486;46.738;7.622;2024-03-23T17:09:18;94954.72;;;13.05;29.45
30744;BME280;17486;46.738;7.622;2024-03-23T17:11:43;94954.09;;;13.02;29.58
30744;BME280;17486;46.738;7.622;2024-03-23T17:14:10;94954.03;;;12.89;29.46
30744;BME280;17486;46.738;7.622;2024-03-23T17:16:37;94944.59;;;12.73;29.64
30744;BME280;17486;46.738;7.622;2024-03-23T17:19:02;94951.66;;;12.71;29.84
30744;BME280;17486;46.738;7.622;2024-03-23T17:21:28;94949.03;;;12.71;29.78
30744;BME280;17486;46.738;7.622;2024-03-23T17:23:53;94955.75;;;12.75;29.70
30744;BME280;17486;46.738;7.622;2024-03-23T17:26:23;94936.00;;;12.71;29.60
30744;BME280;17486;46.738;7.622;2024-03-23T17:28:49;94947.19;;;12.73;29.45
30744;BME280;17486;46.738;7.622;2024-03-23T17:31:18;94943.00;;;12.71;29.67